Time;durP1;ratioP1;P1;durP2;ratioP2;P2;SDS_P1;SDS_P2;PMS_P1;PMS_P2;Temp;Humidity;BMP_temperature;BMP_pressure;BME280_temperature;BME280_humidity;BME280_pressure;Samples;Min_cycle;Max_cycle;Signal;HPM_P1;HPM_P2
2022/06/16 00:01:14;;;;;;;8.73;5.00;;;;;;;;;;5011476;28;20193;-55
2022/06/16 00:03:40;;;;;;;11.18;4.93;;;;;;;;;;5010031;28;20409;-54
2022/06/16 00:06:07;;;;;;;8.95;5.07;;;;;;;;;;4974934;28;20193;-54
2022/06/16 00:08:33;;;;;;;7.68;4.55;;;;;;;;;;4995155;28;20201;-52
2022/06/16 00:11:17;;;;;;;11.55;4.93;;;;;;;;;;5012559;28;20216;-61
2022/06/16 00:13:44;;;;;;;8.55;4.70;;;;;;;;;;5012019;28;20188;-55
2022/06/16 00:16:10;;;;;;;9.80;4.88;;;;;;;;;;4986431;28;20734;-53
2022/06/16 00:18:37;;;;;;;7.60;4.60;;;;;;;;;;5016110;28;20557;-55
2022/06/16 00:21:04;;;;;;;8.93;5.05;;;;;;;;;;4980254;28;20229;-54
2022/06/16 00:23:30;;;;;;;8.57;4.60;;;;;;;;;;5015283;28;20189;-56
2022/06/16 00:25:56;;;;;;;9.02;4.70;;;;;;;;;;5012914;28;20188;-54
2022/06/16 00:28:22;;;;;;;8.90;4.70;;;;;;;;;;5016072;28;20293;-52
2022/06/16 00:30:49;;;;;;;8.20;4.95;;;;;;;;;;5013933;28;20184;-55
2022/06/16 00:33:15;;;;;;;7.47;4.18;;;;;;;;;;5015091;28;20180;-55
2022/06/16 00:35:41;;;;;;;8.07;4.53;;;;;;;;;;5012060;28;20185;-55
2022/06/16 00:38:08;;;;;;;8.55;4.68;;;;;;;;;;4998347;28;20544;-53
2022/06/16 00:40:34;;;;;;;7.70;4.35;;;;;;;;;;5013394;28;20235;-54
2022/06/16 00:43:00;;;;;;;7.70;4.22;;;;;;;;;;4995766;28;20552;-54
2022/06/16 00:46:05;;;;;;;6.05;3.97;;;;;;;;;;5011518;28;20186;-51
2022/06/16 00:48:38;;;;;;;7.20;4.13;;;;;;;;;;4916576;29;20707;-52
2022/06/16 00:51:05;;;;;;;8.68;4.40;;;;;;;;;;4900575;29;20267;-53
2022/06/16 00:53:32;;;;;;;7.10;4.30;;;;;;;;;;4946034;28;20227;-49
2022/06/16 00:55:58;;;;;;;11.38;4.45;;;;;;;;;;4977081;28;20181;-55
2022/06/16 00:58:26;;;;;;;9.10;4.57;;;;;;;;;;5013043;28;20201;-53
2022/06/16 01:00:52;;;;;;;8.35;4.57;;;;;;;;;;5013210;28;20189;-53
2022/06/16 01:06:24;;;;;;;11.93;4.95;;;;;;;;;;5010564;28;20223;-54
2022/06/16 01:08:54;;;;;;;10.23;5.05;;;;;;;;;;5012432;28;20196;-51
2022/06/16 01:14:20;;;;;;;8.35;4.60;;;;;;;;;;4998875;28;20213;-51
2022/06/16 01:16:49;;;;;;;8.95;4.88;;;;;;;;;;5013599;28;20188;-52
2022/06/16 01:19:41;;;;;;;11.88;4.85;;;;;;;;;;5005005;28;20169;-51
2022/06/16 01:22:12;;;;;;;11.77;4.28;;;;;;;;;;4979689;28;20200;-50
2022/06/16 01:24:57;;;;;;;10.35;5.10;;;;;;;;;;4994632;28;20192;-53
2022/06/16 01:27:47;;;;;;;7.82;4.50;;;;;;;;;;4996035;28;20254;-61
2022/06/16 01:30:17;;;;;;;7.63;4.35;;;;;;;;;;4983310;28;20247;-54
2022/06/16 01:32:55;;;;;;;10.27;4.70;;;;;;;;;;5015065;28;20230;-53
2022/06/16 01:35:28;;;;;;;13.48;4.32;;;;;;;;;;5006980;28;20570;-52
2022/06/16 01:38:07;;;;;;;7.88;4.50;;;;;;;;;;5011424;28;20188;-56
2022/06/16 01:40:43;;;;;;;10.93;4.65;;;;;;;;;;5010496;28;20267;-53
2022/06/16 01:43:28;;;;;;;6.60;4.20;;;;;;;;;;5013280;28;20606;-59
2022/06/16 01:46:02;;;;;;;10.50;4.53;;;;;;;;;;5007273;28;20188;-52
2022/06/16 01:48:29;;;;;;;8.57;4.47;;;;;;;;;;5010151;28;20216;-55
2022/06/16 01:51:08;;;;;;;8.82;4.43;;;;;;;;;;4967311;28;20616;-55
2022/06/16 01:53:43;;;;;;;9.50;4.45;;;;;;;;;;4992856;28;20196;-53
2022/06/16 01:56:17;;;;;;;6.35;4.28;;;;;;;;;;5008790;28;20176;-55
2022/06/16 01:58:45;;;;;;;10.40;4.65;;;;;;;;;;5012022;28;20192;-51
2022/06/16 02:01:14;;;;;;;10.52;4.38;;;;;;;;;;5009431;28;20652;-61
2022/06/16 02:03:47;;;;;;;8.40;4.80;;;;;;;;;;4995636;28;20219;-52
2022/06/16 02:06:21;;;;;;;7.30;4.80;;;;;;;;;;5009270;28;20177;-54
2022/06/16 02:08:51;;;;;;;6.55;4.57;;;;;;;;;;4994598;28;20278;-64
2022/06/16 02:11:20;;;;;;;7.30;4.43;;;;;;;;;;4977697;28;20199;-51
2022/06/16 02:13:55;;;;;;;8.38;4.82;;;;;;;;;;4996539;28;20189;-58
2022/06/16 02:16:32;;;;;;;8.43;4.95;;;;;;;;;;4996761;28;20191;-50
2022/06/16 02:18:59;;;;;;;7.82;4.47;;;;;;;;;;5009361;28;20193;-51
2022/06/16 02:21:35;;;;;;;9.63;5.28;;;;;;;;;;4994214;28;20189;-58
2022/06/16 02:24:06;;;;;;;6.72;4.75;;;;;;;;;;5009320;28;20234;-52
2022/06/16 02:26:33;;;;;;;10.30;4.97;;;;;;;;;;4996144;28;20635;-54
2022/06/16 02:29:01;;;;;;;9.77;4.88;;;;;;;;;;5010254;28;20204;-53
2022/06/16 02:31:35;;;;;;;8.20;5.00;;;;;;;;;;4995502;28;20188;-55
2022/06/16 02:34:17;;;;;;;7.88;4.97;;;;;;;;;;4992421;28;20644;-51
2022/06/16 02:36:56;;;;;;;7.07;4.70;;;;;;;;;;5006918;28;20196;-50
2022/06/16 02:39:31;;;;;;;7.63;5.00;;;;;;;;;;4990911;28;20184;-54
2022/06/16 02:42:16;;;;;;;10.73;5.10;;;;;;;;;;4984473;28;20210;-53
2022/06/16 02:45:01;;;;;;;8.13;4.68;;;;;;;;;;5009512;28;20184;-53
2022/06/16 02:47:48;;;;;;;8.75;5.15;;;;;;;;;;5010696;28;20291;-53
2022/06/16 02:50:36;;;;;;;13.55;5.90;;;;;;;;;;4994133;28;20231;-53
2022/06/16 02:53:12;;;;;;;8.68;5.40;;;;;;;;;;5012217;28;20181;-53
2022/06/16 02:55:46;;;;;;;11.43;5.38;;;;;;;;;;4993308;28;20260;-53
2022/06/16 02:58:15;;;;;;;8.77;5.25;;;;;;;;;;4993006;28;20951;-54
2022/06/16 03:00:45;;;;;;;10.10;5.55;;;;;;;;;;4978636;28;20192;-53
2022/06/16 03:03:23;;;;;;;9.15;5.47;;;;;;;;;;4995387;28;20188;-53
2022/06/16 03:05:58;;;;;;;9.95;5.80;;;;;;;;;;4993468;28;20574;-56
2022/06/16 03:08:27;;;;;;;9.10;5.28;;;;;;;;;;4995524;28;20218;-53
2022/06/16 03:10:58;;;;;;;8.70;5.63;;;;;;;;;;4994042;28;20221;-52
2022/06/16 03:13:27;;;;;;;10.20;5.70;;;;;;;;;;4994229;28;20267;-63
2022/06/16 03:15:54;;;;;;;10.27;6.00;;;;;;;;;;4990399;28;20196;-51
2022/06/16 03:18:21;;;;;;;11.00;6.20;;;;;;;;;;4995226;28;20211;-51
2022/06/16 03:20:47;;;;;;;9.55;5.80;;;;;;;;;;5011237;28;20187;-53
2022/06/16 03:23:14;;;;;;;10.05;5.95;;;;;;;;;;5011927;28;20196;-59
2022/06/16 03:25:42;;;;;;;12.20;6.35;;;;;;;;;;5005275;28;20181;-54
2022/06/16 03:28:08;;;;;;;13.00;6.20;;;;;;;;;;4977902;28;20211;-51
2022/06/16 03:30:38;;;;;;;11.93;6.65;;;;;;;;;;5005136;28;20272;-57
2022/06/16 03:33:06;;;;;;;9.73;5.93;;;;;;;;;;4978777;28;20291;-53
2022/06/16 03:35:34;;;;;;;11.85;6.43;;;;;;;;;;5008088;28;20177;-58
2022/06/16 03:38:11;;;;;;;13.07;6.15;;;;;;;;;;4978642;28;20188;-52
2022/06/16 03:40:41;;;;;;;11.32;6.22;;;;;;;;;;4977100;28;20287;-54
2022/06/16 03:43:08;;;;;;;11.23;6.35;;;;;;;;;;4995796;28;20184;-52
2022/06/16 03:45:36;;;;;;;9.50;5.93;;;;;;;;;;4981836;28;20196;-59
2022/06/16 03:48:03;;;;;;;16.65;6.95;;;;;;;;;;4992126;28;20217;-55
2022/06/16 03:50:30;;;;;;;9.60;5.95;;;;;;;;;;5004751;28;20236;-54
2022/06/16 03:52:57;;;;;;;13.73;6.60;;;;;;;;;;4983082;28;20235;-53
2022/06/16 03:55:24;;;;;;;10.50;6.22;;;;;;;;;;5012496;28;20197;-54
2022/06/16 03:57:51;;;;;;;9.70;6.20;;;;;;;;;;5014126;28;20189;-52
2022/06/16 04:00:18;;;;;;;11.80;6.43;;;;;;;;;;4998006;28;20189;-56
2022/06/16 04:02:47;;;;;;;14.60;6.80;;;;;;;;;;5015623;28;20209;-54
2022/06/16 04:05:25;;;;;;;12.32;6.85;;;;;;;;;;5009017;28;20181;-50
2022/06/16 04:08:01;;;;;;;11.23;5.93;;;;;;;;;;4996729;28;20254;-54
2022/06/16 04:10:28;;;;;;;8.07;5.80;;;;;;;;;;4978572;28;20189;-52
2022/06/16 04:12:54;;;;;;;8.02;5.85;;;;;;;;;;5010933;28;20656;-54
2022/06/16 04:15:28;;;;;;;18.13;6.55;;;;;;;;;;4996787;28;20202;-53
2022/06/16 04:17:56;;;;;;;7.50;5.63;;;;;;;;;;4998484;28;20203;-53
2022/06/16 04:20:29;;;;;;;9.55;5.85;;;;;;;;;;4981302;28;20185;-54
2022/06/16 04:22:58;;;;;;;10.68;5.90;;;;;;;;;;4997895;28;20181;-55
2022/06/16 04:25:30;;;;;;;15.00;6.13;;;;;;;;;;4980536;28;20184;-55
2022/06/16 04:28:01;;;;;;;11.07;6.60;;;;;;;;;;4981602;28;20223;-58
2022/06/16 04:30:27;;;;;;;11.70;5.97;;;;;;;;;;4996578;28;20284;-52
2022/06/16 04:32:57;;;;;;;9.82;6.30;;;;;;;;;;4998363;28;20221;-53
2022/06/16 04:35:25;;;;;;;11.23;6.20;;;;;;;;;;4982046;28;20235;-54
2022/06/16 04:37:57;;;;;;;11.55;6.28;;;;;;;;;;5012294;28;20192;-57
2022/06/16 04:40:23;;;;;;;11.27;6.75;;;;;;;;;;5010554;28;20532;-55
2022/06/16 04:42:52;;;;;;;9.77;6.50;;;;;;;;;;4982077;28;20185;-54
2022/06/16 04:45:19;;;;;;;8.63;6.90;;;;;;;;;;4994594;28;20177;-55
2022/06/16 04:47:47;;;;;;;11.65;7.40;;;;;;;;;;4991491;28;20262;-50
2022/06/16 04:50:17;;;;;;;15.25;7.15;;;;;;;;;;4994506;28;20311;-51
2022/06/16 04:52:45;;;;;;;19.02;8.75;;;;;;;;;;4997833;28;20714;-55
2022/06/16 04:55:12;;;;;;;12.82;8.82;;;;;;;;;;4995564;28;20613;-52
2022/06/16 04:57:43;;;;;;;16.30;9.35;;;;;;;;;;4980984;28;20644;-53
2022/06/16 05:00:29;;;;;;;16.98;9.63;;;;;;;;;;4996523;28;20228;-54
2022/06/16 05:03:01;;;;;;;14.57;9.23;;;;;;;;;;4993118;28;20189;-60
2022/06/16 05:05:39;;;;;;;14.13;9.63;;;;;;;;;;4993572;28;20200;-54
2022/06/16 05:08:32;;;;;;;15.80;9.30;;;;;;;;;;4996229;28;20260;-53
2022/06/16 05:11:17;;;;;;;11.38;7.75;;;;;;;;;;4996669;28;20199;-55
2022/06/16 05:14:06;;;;;;;11.77;7.90;;;;;;;;;;4988951;28;20209;-53
2022/06/16 05:16:51;;;;;;;17.30;8.48;;;;;;;;;;5013571;28;20207;-52
2022/06/16 05:19:31;;;;;;;12.07;7.43;;;;;;;;;;4998580;28;20192;-61
2022/06/16 05:22:29;;;;;;;16.40;8.32;;;;;;;;;;4968736;28;20220;-51
2022/06/16 05:25:19;;;;;;;11.77;7.82;;;;;;;;;;5010252;28;20284;-52
2022/06/16 05:28:18;;;;;;;10.38;7.13;;;;;;;;;;5009872;28;20221;-53
2022/06/16 05:31:05;;;;;;;13.23;8.63;;;;;;;;;;5010234;28;20212;-55
2022/06/16 05:33:36;;;;;;;13.40;7.55;;;;;;;;;;5012120;28;20249;-55
2022/06/16 05:36:23;;;;;;;13.00;6.97;;;;;;;;;;5012733;28;20193;-51
2022/06/16 05:39:11;;;;;;;14.48;6.93;;;;;;;;;;5010368;28;20188;-54
2022/06/16 05:41:47;;;;;;;12.85;7.25;;;;;;;;;;5009981;28;20188;-54
2022/06/16 05:44:13;;;;;;;14.93;6.90;;;;;;;;;;5011998;28;20193;-51
2022/06/16 05:46:57;;;;;;;12.10;6.72;;;;;;;;;;5011256;28;20235;-55
2022/06/16 05:49:26;;;;;;;12.88;6.10;;;;;;;;;;4976210;28;20228;-50
2022/06/16 05:51:57;;;;;;;15.02;6.28;;;;;;;;;;4986716;28;20197;-56
2022/06/16 05:54:29;;;;;;;13.88;6.03;;;;;;;;;;5009670;28;20184;-52
2022/06/16 05:56:56;;;;;;;13.63;6.05;;;;;;;;;;4996111;28;20204;-56
2022/06/16 05:59:22;;;;;;;14.57;6.00;;;;;;;;;;4976202;28;20190;-50
2022/06/16 06:01:50;;;;;;;12.25;5.72;;;;;;;;;;5006255;28;20277;-49
2022/06/16 06:04:17;;;;;;;9.52;5.90;;;;;;;;;;4992974;28;20180;-52
2022/06/16 06:06:44;;;;;;;10.73;5.40;;;;;;;;;;4993094;28;20667;-54
2022/06/16 06:17:43;;;;;;;7.45;5.18;;;;;;;;;;4980615;28;20200;-52
2022/06/16 06:20:10;;;;;;;10.60;4.57;;;;;;;;;;5011821;28;20177;-53
2022/06/16 06:22:36;;;;;;;13.43;5.25;;;;;;;;;;5011262;28;20196;-51
2022/06/16 06:25:08;;;;;;;10.95;5.65;;;;;;;;;;5010500;28;20180;-50
2022/06/16 06:27:36;;;;;;;9.93;5.10;;;;;;;;;;4995315;28;20212;-52
2022/06/16 06:30:04;;;;;;;11.13;5.78;;;;;;;;;;5011580;28;20212;-52
2022/06/16 06:32:31;;;;;;;11.00;5.90;;;;;;;;;;4995965;28;20629;-51
2022/06/16 06:34:57;;;;;;;11.25;5.32;;;;;;;;;;5011225;28;20192;-53
2022/06/16 06:37:25;;;;;;;12.18;6.35;;;;;;;;;;5011976;28;20184;-62
2022/06/16 06:39:51;;;;;;;14.00;6.72;;;;;;;;;;5009758;28;20184;-53
2022/06/16 06:42:18;;;;;;;11.10;5.53;;;;;;;;;;5013352;28;20663;-53
2022/06/16 06:44:44;;;;;;;9.70;4.75;;;;;;;;;;5010404;28;20177;-50
2022/06/16 06:47:17;;;;;;;9.65;4.72;;;;;;;;;;5011490;28;20217;-53
2022/06/16 06:49:43;;;;;;;7.20;3.67;;;;;;;;;;5008287;28;20228;-51
2022/06/16 06:52:09;;;;;;;8.13;4.00;;;;;;;;;;5010369;28;20192;-55
2022/06/16 06:54:35;;;;;;;8.80;4.30;;;;;;;;;;5010196;28;20188;-50
2022/06/16 06:57:02;;;;;;;7.07;4.10;;;;;;;;;;5008878;28;20204;-53
2022/06/16 06:59:28;;;;;;;7.40;3.70;;;;;;;;;;4975764;28;20182;-53
2022/06/16 07:01:54;;;;;;;6.97;3.42;;;;;;;;;;4991776;28;20209;-53
2022/06/16 07:04:21;;;;;;;8.75;3.35;;;;;;;;;;5011087;28;20310;-55
2022/06/16 07:06:48;;;;;;;9.60;3.55;;;;;;;;;;5000627;28;20193;-52
2022/06/16 07:09:16;;;;;;;9.25;3.10;;;;;;;;;;4994067;28;20549;-52
2022/06/16 07:11:43;;;;;;;8.75;3.50;;;;;;;;;;5011872;28;20526;-54
2022/06/16 07:14:09;;;;;;;5.93;3.10;;;;;;;;;;5010144;28;20323;-53
2022/06/16 07:16:36;;;;;;;8.05;2.85;;;;;;;;;;5011180;28;20188;-54
2022/06/16 07:19:03;;;;;;;7.07;3.00;;;;;;;;;;5010609;28;20185;-53
2022/06/16 07:21:30;;;;;;;6.70;2.85;;;;;;;;;;4991804;28;20189;-52
2022/06/16 07:23:56;;;;;;;10.63;2.80;;;;;;;;;;5008069;28;20719;-50
2022/06/16 07:26:23;;;;;;;6.75;2.72;;;;;;;;;;5009657;28;20211;-58
2022/06/16 07:28:49;;;;;;;5.88;2.85;;;;;;;;;;5009879;28;20699;-48
2022/06/16 07:31:15;;;;;;;12.20;3.30;;;;;;;;;;5012664;28;20235;-49
2022/06/16 07:33:42;;;;;;;7.45;2.67;;;;;;;;;;5012059;28;20202;-49
2022/06/16 07:36:09;;;;;;;8.70;2.72;;;;;;;;;;5007813;28;20188;-49
2022/06/16 07:38:35;;;;;;;7.75;2.70;;;;;;;;;;5011343;28;20246;-52
2022/06/16 07:43:47;;;;;;;10.45;3.13;;;;;;;;;;5011134;28;20238;-59
2022/06/16 07:46:13;;;;;;;6.82;3.10;;;;;;;;;;4995712;28;20181;-51
2022/06/16 07:48:39;;;;;;;8.38;3.08;;;;;;;;;;4992525;28;20779;-50
2022/06/16 07:51:06;;;;;;;5.90;2.80;;;;;;;;;;5010900;28;20181;-51
2022/06/16 07:53:32;;;;;;;11.05;3.05;;;;;;;;;;5012778;28;20672;-51
2022/06/16 07:55:58;;;;;;;5.13;2.88;;;;;;;;;;5009545;28;20232;-54
2022/06/16 07:58:29;;;;;;;6.35;2.80;;;;;;;;;;5008875;28;20644;-51
2022/06/16 08:00:56;;;;;;;7.97;3.00;;;;;;;;;;5010048;28;20190;-48
2022/06/16 08:03:26;;;;;;;6.18;3.28;;;;;;;;;;5013045;28;20526;-49
2022/06/16 08:05:53;;;;;;;7.68;2.80;;;;;;;;;;5009928;28;20503;-52
2022/06/16 08:08:22;;;;;;;5.55;2.67;;;;;;;;;;5010177;28;20216;-50
2022/06/16 08:10:48;;;;;;;10.98;3.25;;;;;;;;;;4982787;28;20195;-52
2022/06/16 08:13:14;;;;;;;5.38;2.72;;;;;;;;;;4994263;28;20219;-49
2022/06/16 08:15:45;;;;;;;8.15;2.90;;;;;;;;;;5009843;28;20561;-54
2022/06/16 08:18:12;;;;;;;6.00;2.38;;;;;;;;;;5010644;28;20199;-51
2022/06/16 08:20:38;;;;;;;6.05;3.35;;;;;;;;;;4993511;28;20674;-49
2022/06/16 08:23:04;;;;;;;7.25;3.28;;;;;;;;;;4993820;28;20192;-52
2022/06/16 08:25:31;;;;;;;5.28;3.10;;;;;;;;;;4974633;28;20193;-52
2022/06/16 08:27:57;;;;;;;6.75;3.17;;;;;;;;;;4988197;28;20217;-52
2022/06/16 08:30:24;;;;;;;8.98;3.20;;;;;;;;;;5013958;28;20189;-52
2022/06/16 08:32:51;;;;;;;6.80;2.90;;;;;;;;;;5013642;28;20551;-51
2022/06/16 08:35:17;;;;;;;7.80;3.38;;;;;;;;;;5012892;28;20211;-52
2022/06/16 08:37:43;;;;;;;7.55;2.95;;;;;;;;;;5013679;28;20192;-54
2022/06/16 08:40:10;;;;;;;8.30;2.83;;;;;;;;;;4995889;28;20185;-52
2022/06/16 08:42:42;;;;;;;9.38;2.88;;;;;;;;;;5016024;28;20207;-53
2022/06/16 08:45:21;;;;;;;6.22;2.90;;;;;;;;;;5014407;28;20188;-53
2022/06/16 08:47:51;;;;;;;7.25;3.10;;;;;;;;;;5004997;28;20193;-56
2022/06/16 08:50:32;;;;;;;7.85;2.90;;;;;;;;;;5009074;28;20328;-54
2022/06/16 08:53:09;;;;;;;7.63;3.03;;;;;;;;;;5001150;28;20192;-53
2022/06/16 08:55:48;;;;;;;5.38;3.20;;;;;;;;;;5002170;28;20188;-51
2022/06/16 08:58:49;;;;;;;6.85;3.53;;;;;;;;;;5014142;28;20215;-53
2022/06/16 09:01:22;;;;;;;7.97;3.70;;;;;;;;;;4935717;29;20297;-50
2022/06/16 09:04:01;;;;;;;10.77;3.80;;;;;;;;;;4971592;28;20727;-56
2022/06/16 09:06:27;;;;;;;13.38;3.63;;;;;;;;;;4994902;28;20188;-49
2022/06/16 09:12:13;;;;;;;6.47;3.45;;;;;;;;;;4986870;28;20193;-54
2022/06/16 09:17:32;;;;;;;7.68;3.72;;;;;;;;;;5013550;28;20206;-53
2022/06/16 09:20:14;;;;;;;8.98;3.63;;;;;;;;;;5012991;28;20184;-52
2022/06/16 09:22:52;;;;;;;9.07;3.30;;;;;;;;;;5014250;28;20180;-52
2022/06/16 09:25:18;;;;;;;7.07;3.40;;;;;;;;;;5013701;28;20184;-52
2022/06/16 09:28:04;;;;;;;6.85;3.30;;;;;;;;;;5015049;28;20284;-50
2022/06/16 09:30:33;;;;;;;8.98;3.22;;;;;;;;;;5011286;28;20648;-50
2022/06/16 09:33:04;;;;;;;7.13;2.80;;;;;;;;;;5015067;28;20172;-51
2022/06/16 09:35:34;;;;;;;6.65;2.67;;;;;;;;;;4991825;28;20204;-50
2022/06/16 09:38:03;;;;;;;6.18;3.28;;;;;;;;;;5013444;28;20185;-58
2022/06/16 09:40:33;;;;;;;10.50;2.88;;;;;;;;;;5012234;28;20243;-48
2022/06/16 09:42:59;;;;;;;9.85;3.15;;;;;;;;;;5015076;28;20169;-53
2022/06/16 09:45:29;;;;;;;8.85;3.10;;;;;;;;;;5012859;28;20183;-47
2022/06/16 09:48:04;;;;;;;6.38;2.97;;;;;;;;;;5007346;28;20286;-53
2022/06/16 09:50:30;;;;;;;13.13;4.30;;;;;;;;;;4990170;28;20323;-50
2022/06/16 09:53:10;;;;;;;5.90;3.28;;;;;;;;;;5010812;28;20188;-48
2022/06/16 09:55:39;;;;;;;7.43;2.78;;;;;;;;;;4999648;28;20263;-52
2022/06/16 09:58:30;;;;;;;5.60;2.90;;;;;;;;;;4994846;28;20195;-50
2022/06/16 10:00:58;;;;;;;5.25;2.97;;;;;;;;;;5011087;28;20193;-52
2022/06/16 10:03:26;;;;;;;8.18;2.90;;;;;;;;;;5001152;28;20225;-53
2022/06/16 10:06:03;;;;;;;8.75;3.25;;;;;;;;;;5010781;28;20196;-54
2022/06/16 10:08:33;;;;;;;9.27;3.50;;;;;;;;;;4996887;28;20215;-54
2022/06/16 10:11:10;;;;;;;9.40;3.33;;;;;;;;;;5012998;28;20187;-53
2022/06/16 10:13:40;;;;;;;6.20;3.50;;;;;;;;;;5011497;28;20238;-54
2022/06/16 10:16:17;;;;;;;8.88;3.00;;;;;;;;;;4993408;28;20271;-51
2022/06/16 10:18:44;;;;;;;6.97;3.30;;;;;;;;;;4992356;28;20188;-52
2022/06/16 10:21:11;;;;;;;7.65;3.40;;;;;;;;;;5008351;28;20227;-49
2022/06/16 10:23:41;;;;;;;6.75;3.13;;;;;;;;;;5011212;28;20220;-50
2022/06/16 10:26:08;;;;;;;7.25;3.60;;;;;;;;;;4993397;28;20212;-50
2022/06/16 10:28:49;;;;;;;6.00;3.10;;;;;;;;;;5012422;28;20201;-55
2022/06/16 10:31:35;;;;;;;8.73;3.80;;;;;;;;;;5003439;28;20180;-55
2022/06/16 10:34:01;;;;;;;9.75;3.22;;;;;;;;;;4994307;28;20264;-54
2022/06/16 10:36:28;;;;;;;9.43;4.10;;;;;;;;;;5012990;28;20194;-54
2022/06/16 10:39:13;;;;;;;6.72;3.40;;;;;;;;;;5010343;28;20644;-53
2022/06/16 10:41:51;;;;;;;4.93;2.95;;;;;;;;;;4993313;28;20177;-55
2022/06/16 10:44:19;;;;;;;9.05;3.58;;;;;;;;;;4997538;28;21130;-54
2022/06/16 10:46:51;;;;;;;8.07;3.65;;;;;;;;;;5011713;28;20262;-54
2022/06/16 10:49:20;;;;;;;7.30;3.55;;;;;;;;;;5010719;28;20221;-53
2022/06/16 10:51:52;;;;;;;6.80;3.42;;;;;;;;;;5013746;28;20238;-57
2022/06/16 10:54:27;;;;;;;7.80;3.63;;;;;;;;;;5007101;28;20427;-54
2022/06/16 10:57:04;;;;;;;13.57;7.30;;;;;;;;;;5011335;28;20185;-59
2022/06/16 10:59:30;;;;;;;9.35;3.88;;;;;;;;;;4998289;28;20176;-49
2022/06/16 11:02:01;;;;;;;6.00;3.00;;;;;;;;;;5010642;28;20191;-52
2022/06/16 11:04:39;;;;;;;8.27;3.40;;;;;;;;;;5009786;28;20177;-54
2022/06/16 11:07:06;;;;;;;7.50;3.90;;;;;;;;;;5012400;28;20247;-53
2022/06/16 11:09:34;;;;;;;6.03;3.92;;;;;;;;;;5010958;28;20211;-52
2022/06/16 11:12:02;;;;;;;8.98;3.83;;;;;;;;;;5012243;28;20184;-53
2022/06/16 11:14:31;;;;;;;6.55;3.85;;;;;;;;;;4991551;28;20697;-54
2022/06/16 11:16:58;;;;;;;7.47;3.58;;;;;;;;;;4998024;28;20184;-53
2022/06/16 11:19:24;;;;;;;8.50;4.18;;;;;;;;;;5008089;28;20254;-55
2022/06/16 11:21:51;;;;;;;6.97;3.80;;;;;;;;;;5010758;28;20234;-53
2022/06/16 11:24:29;;;;;;;7.75;3.80;;;;;;;;;;5011739;28;20176;-52
2022/06/16 11:27:03;;;;;;;9.43;3.50;;;;;;;;;;5011929;28;20188;-52
2022/06/16 11:29:36;;;;;;;10.18;3.47;;;;;;;;;;5011665;28;20176;-55
2022/06/16 11:32:07;;;;;;;13.82;4.28;;;;;;;;;;5013382;28;20184;-51
2022/06/16 11:34:33;;;;;;;7.28;3.70;;;;;;;;;;5008210;28;20632;-57
2022/06/16 11:37:11;;;;;;;10.77;4.15;;;;;;;;;;5011043;28;20197;-53
2022/06/16 11:39:37;;;;;;;7.53;3.75;;;;;;;;;;5011259;28;20180;-50
2022/06/16 11:42:03;;;;;;;7.10;4.07;;;;;;;;;;5011738;28;20180;-53
2022/06/16 11:44:35;;;;;;;11.05;4.00;;;;;;;;;;5011201;28;20255;-52
2022/06/16 11:47:01;;;;;;;8.43;4.05;;;;;;;;;;5010298;28;20520;-54
2022/06/16 11:49:36;;;;;;;10.57;3.90;;;;;;;;;;5009522;28;20219;-54
2022/06/16 11:52:15;;;;;;;10.32;4.07;;;;;;;;;;4998935;28;20627;-52
2022/06/16 11:54:53;;;;;;;8.27;3.35;;;;;;;;;;5007787;28;20194;-54
2022/06/16 11:57:30;;;;;;;7.32;3.83;;;;;;;;;;5005310;28;20192;-52
2022/06/16 12:00:15;;;;;;;9.05;3.90;;;;;;;;;;5002623;28;20190;-52
2022/06/16 12:02:59;;;;;;;9.27;3.78;;;;;;;;;;4994335;28;20192;-52
2022/06/16 12:05:33;;;;;;;5.47;3.60;;;;;;;;;;5010445;28;20670;-51
2022/06/16 12:08:18;;;;;;;7.88;4.00;;;;;;;;;;4997128;28;20212;-53
2022/06/16 12:10:54;;;;;;;6.28;3.90;;;;;;;;;;5012768;28;20184;-52
2022/06/16 12:13:36;;;;;;;8.95;4.10;;;;;;;;;;4996896;28;20180;-49
2022/06/16 12:16:07;;;;;;;14.60;3.80;;;;;;;;;;5012817;28;20192;-50
2022/06/16 12:18:34;;;;;;;9.52;3.80;;;;;;;;;;5013226;28;20279;-52
2022/06/16 12:21:12;;;;;;;9.38;4.40;;;;;;;;;;5011721;28;20184;-51
2022/06/16 12:23:41;;;;;;;6.75;3.88;;;;;;;;;;5015994;28;20172;-54
2022/06/16 12:26:29;;;;;;;9.75;3.67;;;;;;;;;;5013510;28;20219;-51
2022/06/16 12:29:19;;;;;;;13.38;4.50;;;;;;;;;;5014557;28;20683;-50
2022/06/16 12:31:56;;;;;;;7.25;3.65;;;;;;;;;;4985951;28;20284;-51
2022/06/16 12:34:28;;;;;;;9.00;4.20;;;;;;;;;;4999448;28;20183;-51
2022/06/16 12:36:56;;;;;;;8.68;4.38;;;;;;;;;;5009749;28;20193;-53
2022/06/16 12:39:31;;;;;;;9.38;3.95;;;;;;;;;;4980573;28;20243;-51
2022/06/16 12:42:00;;;;;;;9.57;4.50;;;;;;;;;;5015640;28;20194;-50
2022/06/16 12:44:38;;;;;;;8.10;3.97;;;;;;;;;;5011457;28;20180;-57
2022/06/16 12:47:07;;;;;;;7.40;4.38;;;;;;;;;;4994782;28;20255;-48
2022/06/16 12:49:45;;;;;;;9.02;4.50;;;;;;;;;;4993908;28;20217;-51
2022/06/16 12:52:22;;;;;;;9.60;4.90;;;;;;;;;;5005577;28;20648;-52
2022/06/16 12:54:52;;;;;;;9.40;5.03;;;;;;;;;;5009924;28;20255;-55
2022/06/16 12:57:20;;;;;;;9.50;4.75;;;;;;;;;;5014832;28;20215;-53
2022/06/16 13:00:05;;;;;;;10.50;5.28;;;;;;;;;;5013111;28;20191;-53
2022/06/16 13:02:34;;;;;;;7.40;4.60;;;;;;;;;;5014046;28;20714;-52
2022/06/16 13:05:08;;;;;;;10.02;5.20;;;;;;;;;;5010064;28;20191;-52
2022/06/16 13:07:35;;;;;;;9.57;5.35;;;;;;;;;;4997521;28;20755;-54
2022/06/16 13:10:04;;;;;;;7.75;4.50;;;;;;;;;;5013606;28;20189;-54
2022/06/16 13:12:32;;;;;;;10.05;5.20;;;;;;;;;;5013984;28;20209;-58
2022/06/16 13:15:04;;;;;;;12.85;4.70;;;;;;;;;;4995275;28;20692;-53
2022/06/16 13:17:33;;;;;;;10.88;4.63;;;;;;;;;;4995522;28;20259;-58
2022/06/16 13:20:02;;;;;;;9.93;4.32;;;;;;;;;;5011629;28;20239;-52
2022/06/16 13:22:31;;;;;;;9.23;4.30;;;;;;;;;;5011300;28;20188;-55
2022/06/16 13:24:59;;;;;;;8.05;4.80;;;;;;;;;;5012201;28;20242;-54
2022/06/16 13:27:39;;;;;;;9.50;5.90;;;;;;;;;;4996049;28;20213;-60
2022/06/16 13:30:05;;;;;;;11.13;5.53;;;;;;;;;;5005040;28;20188;-53
2022/06/16 13:32:37;;;;;;;10.65;5.80;;;;;;;;;;4996399;28;20181;-54
2022/06/16 13:35:23;;;;;;;9.25;6.53;;;;;;;;;;5010176;28;20188;-52
2022/06/16 13:37:50;;;;;;;11.73;6.75;;;;;;;;;;5013054;28;20546;-55
2022/06/16 13:40:22;;;;;;;11.18;5.88;;;;;;;;;;5011712;28;20180;-54
2022/06/16 13:42:51;;;;;;;11.60;6.00;;;;;;;;;;5008811;28;20208;-53
2022/06/16 13:45:37;;;;;;;13.63;5.97;;;;;;;;;;5012474;28;20184;-53
2022/06/16 13:48:17;;;;;;;15.32;6.07;;;;;;;;;;5012369;28;20269;-53
2022/06/16 13:50:46;;;;;;;13.45;5.72;;;;;;;;;;5008462;28;20239;-52
2022/06/16 13:53:13;;;;;;;11.38;4.90;;;;;;;;;;5008013;28;20189;-52
2022/06/16 13:56:06;;;;;;;9.70;5.03;;;;;;;;;;5011255;28;20181;-54
2022/06/16 13:58:37;;;;;;;11.95;5.38;;;;;;;;;;5010821;28;20200;-60
2022/06/16 14:01:06;;;;;;;16.73;5.85;;;;;;;;;;5010174;28;20535;-55
2022/06/16 14:03:33;;;;;;;9.45;5.40;;;;;;;;;;5013471;28;20183;-51
2022/06/16 14:06:07;;;;;;;12.45;5.78;;;;;;;;;;5012878;28;20180;-53
2022/06/16 14:08:34;;;;;;;8.02;5.35;;;;;;;;;;5001395;28;20263;-52
2022/06/16 14:11:20;;;;;;;9.80;5.22;;;;;;;;;;5008214;28;20181;-50
2022/06/16 14:14:05;;;;;;;11.90;5.20;;;;;;;;;;4977061;28;20184;-51
2022/06/16 14:16:35;;;;;;;11.93;5.30;;;;;;;;;;4994871;28;20188;-53
2022/06/16 14:19:01;;;;;;;9.07;5.10;;;;;;;;;;4992871;28;20649;-55
2022/06/16 14:21:38;;;;;;;9.07;4.68;;;;;;;;;;5011056;28;20196;-55
2022/06/16 14:24:08;;;;;;;10.85;4.85;;;;;;;;;;5010639;28;20678;-55
2022/06/16 14:26:37;;;;;;;11.30;5.13;;;;;;;;;;5013005;28;20596;-55
2022/06/16 14:29:06;;;;;;;9.07;4.95;;;;;;;;;;4992529;28;20221;-53
2022/06/16 14:31:39;;;;;;;10.70;4.95;;;;;;;;;;5013432;28;20226;-52
2022/06/16 14:34:10;;;;;;;10.43;4.68;;;;;;;;;;5009647;28;20176;-53
2022/06/16 14:36:36;;;;;;;9.95;5.43;;;;;;;;;;5011184;28;20264;-53
2022/06/16 14:39:22;;;;;;;12.23;4.85;;;;;;;;;;5011068;28;20530;-49
2022/06/16 14:41:51;;;;;;;10.30;5.22;;;;;;;;;;5007440;28;20176;-55
2022/06/16 14:44:23;;;;;;;13.90;5.47;;;;;;;;;;4987793;28;20189;-50
2022/06/16 14:46:55;;;;;;;9.77;5.60;;;;;;;;;;4990477;28;20604;-48
2022/06/16 14:49:41;;;;;;;8.85;5.20;;;;;;;;;;5011062;28;20266;-52
2022/06/16 14:52:09;;;;;;;10.40;5.80;;;;;;;;;;5005851;28;20224;-54
2022/06/16 14:54:39;;;;;;;14.57;5.93;;;;;;;;;;5008952;28;20181;-54
2022/06/16 14:57:06;;;;;;;9.07;5.30;;;;;;;;;;4994996;28;20188;-54
2022/06/16 14:59:37;;;;;;;11.75;5.30;;;;;;;;;;4993302;28;20200;-54
2022/06/16 15:02:05;;;;;;;11.90;7.53;;;;;;;;;;5008060;28;22134;-54
2022/06/16 15:04:32;;;;;;;10.85;5.78;;;;;;;;;;4992734;28;20190;-54
2022/06/16 15:06:59;;;;;;;8.32;5.43;;;;;;;;;;5008663;28;20192;-51
2022/06/16 15:09:28;;;;;;;9.02;5.38;;;;;;;;;;5009389;28;20188;-52
2022/06/16 15:11:57;;;;;;;9.35;4.57;;;;;;;;;;5010995;28;20275;-55
2022/06/16 15:14:25;;;;;;;6.88;3.38;;;;;;;;;;4990794;28;20581;-49
2022/06/16 15:19:39;;;;;;;9.23;3.80;;;;;;;;;;5010930;28;20801;-60
2022/06/16 15:22:05;;;;;;;10.60;4.30;;;;;;;;;;4995284;28;20648;-52
2022/06/16 15:24:39;;;;;;;7.78;3.78;;;;;;;;;;4993487;28;20180;-53
2022/06/16 15:27:05;;;;;;;10.63;4.65;;;;;;;;;;4992918;28;20185;-55
2022/06/16 15:29:39;;;;;;;7.63;3.90;;;;;;;;;;5011362;28;20291;-52
2022/06/16 15:32:06;;;;;;;6.35;4.05;;;;;;;;;;5013297;28;20648;-53